createdAt,value
2018-04-13T00:00:52.983Z,0.00
2018-04-13T00:01:52.967Z,0.00
2018-04-13T00:02:52.942Z,0.00
2018-04-13T00:03:52.919Z,0.00
2018-04-13T00:04:52.918Z,0.00
2018-04-13T00:05:52.876Z,0.00
2018-04-13T00:06:53.409Z,0.00
2018-04-13T00:07:52.900Z,0.00
2018-04-13T00:08:52.832Z,0.00
2018-04-13T00:09:52.858Z,0.00
2018-04-13T00:10:52.826Z,0.00
2018-04-13T00:11:52.806Z,0.00
2018-04-13T00:12:52.820Z,0.00
2018-04-13T00:13:52.808Z,0.00
2018-04-13T00:14:53.392Z,0.00
2018-04-13T00:15:52.743Z,0.00
2018-04-13T00:16:52.768Z,0.00
2018-04-13T00:17:52.730Z,0.00
2018-04-13T00:18:52.708Z,0.00
2018-04-13T00:19:52.691Z,0.00
2018-04-13T00:20:52.691Z,0.00
2018-04-13T00:21:52.657Z,0.00
2018-04-13T00:22:52.622Z,0.00
2018-04-13T00:23:52.623Z,0.00
2018-04-13T00:24:52.590Z,0.00
2018-04-13T00:25:52.588Z,0.00
2018-04-13T00:26:52.563Z,0.00
2018-04-13T00:27:52.550Z,0.00
2018-04-13T00:28:52.583Z,0.00
2018-04-13T00:29:52.530Z,0.00
2018-04-13T00:30:52.570Z,0.00
2018-04-13T00:31:52.513Z,0.00
2018-04-13T00:32:52.516Z,0.00
2018-04-13T00:33:52.484Z,0.00
2018-04-13T00:34:52.475Z,0.00
2018-04-13T00:35:52.428Z,0.00
2018-04-13T00:36:52.409Z,0.00
2018-04-13T00:37:52.417Z,0.00
2018-04-13T00:38:52.386Z,0.00
2018-04-13T00:39:52.392Z,0.00
2018-04-13T00:40:52.407Z,0.00
2018-04-13T00:41:52.347Z,0.00
2018-04-13T00:42:52.933Z,0.00
2018-04-13T00:43:52.330Z,0.00
2018-04-13T00:44:52.326Z,0.00
2018-04-13T00:45:52.289Z,0.00
2018-04-13T00:46:52.288Z,0.00
2018-04-13T00:47:52.278Z,0.00
2018-04-13T00:48:52.298Z,0.00
2018-04-13T00:49:52.236Z,0.00
2018-04-13T00:50:52.257Z,0.00
2018-04-13T00:51:52.227Z,0.00
2018-04-13T00:52:52.217Z,0.00
2018-04-13T00:53:52.155Z,0.00
2018-04-13T00:54:52.949Z,0.00
2018-04-13T00:55:52.170Z,0.00
2018-04-13T00:56:52.125Z,0.00
2018-04-13T00:57:52.113Z,0.00
2018-04-13T00:58:52.119Z,0.00
2018-04-13T00:59:52.089Z,0.00
2018-04-13T01:00:52.046Z,0.00
2018-04-13T01:01:52.086Z,0.00
2018-04-13T01:02:52.020Z,0.00
2018-04-13T01:03:52.021Z,0.00
2018-04-13T01:04:52.016Z,0.00
2018-04-13T01:05:51.996Z,0.00
2018-04-13T01:06:51.971Z,0.00
2018-04-13T01:07:51.949Z,0.00
2018-04-13T01:08:51.942Z,0.00
2018-04-13T01:09:51.910Z,0.00
2018-04-13T01:10:51.899Z,0.00
2018-04-13T01:11:51.898Z,0.00
2018-04-13T01:12:51.877Z,0.00
2018-04-13T01:13:51.842Z,0.00
2018-04-13T01:14:51.851Z,0.00
2018-04-13T01:15:51.853Z,0.00
2018-04-13T01:16:51.823Z,0.00
2018-04-13T01:17:51.806Z,0.00
2018-04-13T01:18:51.808Z,0.00
2018-04-13T01:19:51.795Z,0.00
2018-04-13T01:20:51.731Z,0.00
2018-04-13T01:21:51.739Z,0.00
2018-04-13T01:22:51.724Z,0.00
2018-04-13T01:23:51.727Z,0.00
2018-04-13T01:24:51.684Z,0.00
2018-04-13T01:25:51.699Z,0.00
2018-04-13T01:26:51.652Z,0.00
2018-04-13T01:27:51.626Z,0.00
2018-04-13T01:28:51.637Z,0.00
2018-04-13T01:29:51.649Z,0.00
2018-04-13T01:30:51.598Z,0.00
2018-04-13T01:31:51.589Z,0.00
2018-04-13T01:32:53.403Z,0.00
2018-04-13T01:33:51.562Z,0.00
2018-04-13T01:34:51.509Z,0.00
2018-04-13T01:35:51.511Z,0.00
2018-04-13T01:36:51.489Z,0.00
2018-04-13T01:37:51.486Z,0.00
2018-04-13T01:38:51.485Z,0.00
2018-04-13T01:39:51.430Z,0.00
2018-04-13T01:40:51.427Z,0.00
2018-04-13T01:41:51.427Z,0.00
2018-04-13T01:42:51.393Z,0.00
2018-04-13T01:43:51.381Z,0.00
2018-04-13T01:44:51.403Z,0.00
2018-04-13T01:45:51.342Z,0.00
2018-04-13T01:46:51.366Z,0.00
2018-04-13T01:47:51.300Z,0.00
2018-04-13T01:48:51.284Z,0.00
2018-04-13T01:49:51.287Z,0.00
2018-04-13T01:50:51.284Z,0.00
2018-04-13T01:51:51.238Z,0.00
2018-04-13T01:52:51.219Z,0.00
2018-04-13T01:53:51.200Z,0.00
2018-04-13T01:54:51.190Z,0.00
2018-04-13T01:55:51.193Z,0.00
2018-04-13T01:56:51.155Z,0.00
2018-04-13T01:57:51.148Z,0.00
2018-04-13T01:58:51.131Z,0.00
2018-04-13T01:59:51.131Z,0.00
2018-04-13T02:00:51.094Z,0.00
2018-04-13T02:01:51.090Z,0.00
2018-04-13T02:02:51.080Z,0.00
2018-04-13T02:03:51.050Z,0.00
2018-04-13T02:04:51.048Z,0.00
2018-04-13T02:05:51.035Z,0.00
2018-04-13T02:06:51.014Z,0.00
2018-04-13T02:07:50.997Z,0.00
2018-04-13T02:08:50.989Z,0.00
2018-04-13T02:09:50.955Z,0.00
2018-04-13T02:10:50.936Z,0.00
2018-04-13T02:11:50.967Z,0.00
2018-04-13T02:12:50.929Z,0.00
2018-04-13T02:13:51.428Z,0.00
2018-04-13T02:14:50.869Z,0.00
2018-04-13T02:15:50.858Z,0.00
2018-04-13T02:16:50.842Z,0.00
2018-04-13T02:17:50.824Z,0.00
2018-04-13T02:18:50.821Z,0.00
2018-04-13T02:19:50.814Z,0.00
2018-04-13T02:20:50.776Z,0.00
2018-04-13T02:21:50.758Z,0.00
2018-04-13T02:22:50.763Z,0.00
2018-04-13T02:23:50.741Z,0.00
2018-04-13T02:24:50.711Z,0.00
2018-04-13T02:25:50.693Z,0.00
2018-04-13T02:26:50.674Z,0.00
2018-04-13T02:27:50.666Z,0.00
2018-04-13T02:28:50.664Z,0.00
2018-04-13T02:29:50.633Z,0.00
2018-04-13T02:30:50.613Z,0.00
2018-04-13T02:31:50.605Z,0.00
2018-04-13T02:32:50.596Z,0.00
2018-04-13T02:33:50.570Z,0.00
2018-04-13T02:34:50.570Z,0.00
2018-04-13T02:35:50.538Z,0.00
2018-04-13T02:36:50.515Z,0.00
2018-04-13T02:37:50.515Z,0.00
2018-04-13T02:38:50.484Z,0.00
2018-04-13T02:39:50.493Z,0.00
2018-04-13T02:40:50.478Z,0.00
2018-04-13T02:41:50.435Z,0.00
2018-04-13T02:42:50.425Z,0.00
2018-04-13T02:43:50.414Z,0.00
2018-04-13T02:44:50.391Z,0.00
2018-04-13T02:45:50.387Z,0.00
2018-04-13T02:46:50.362Z,0.00
2018-04-13T02:47:50.359Z,0.00
2018-04-13T02:48:50.326Z,0.00
2018-04-13T02:49:50.313Z,0.00
2018-04-13T02:50:50.308Z,0.00
2018-04-13T02:51:50.307Z,0.00
2018-04-13T02:52:50.256Z,0.00
2018-04-13T02:53:50.252Z,0.00
2018-04-13T02:54:50.229Z,0.00
2018-04-13T02:55:50.214Z,0.00
2018-04-13T02:56:50.205Z,0.00
2018-04-13T02:57:50.175Z,0.00
2018-04-13T02:58:50.157Z,0.00
2018-04-13T02:59:50.147Z,0.00
2018-04-13T03:00:50.127Z,0.00
2018-04-13T03:01:50.142Z,0.00
2018-04-13T03:02:50.113Z,0.00
2018-04-13T03:03:50.091Z,0.00
2018-04-13T03:04:50.076Z,0.00
2018-04-13T03:05:50.051Z,0.00
2018-04-13T03:06:50.031Z,0.00
2018-04-13T03:07:50.036Z,0.00
2018-04-13T03:08:50.006Z,0.00
2018-04-13T03:09:49.983Z,0.00
2018-04-13T03:10:49.978Z,0.00
2018-04-13T03:11:49.964Z,0.00
2018-04-13T03:12:49.936Z,0.00
2018-04-13T03:13:49.937Z,0.00
2018-04-13T03:14:49.930Z,0.00
2018-04-13T03:15:49.908Z,0.00
2018-04-13T03:16:49.869Z,0.00
2018-04-13T03:17:49.861Z,0.00
2018-04-13T03:18:49.863Z,0.00
2018-04-13T03:19:49.836Z,0.00
2018-04-13T03:20:49.822Z,0.00
2018-04-13T03:21:49.791Z,0.00
2018-04-13T03:22:49.777Z,0.00
2018-04-13T03:23:49.793Z,0.00
2018-04-13T03:24:49.739Z,0.00
2018-04-13T03:25:49.729Z,0.00
2018-04-13T03:26:49.710Z,0.00
2018-04-13T03:27:49.692Z,0.00
2018-04-13T03:28:49.681Z,0.00
2018-04-13T03:29:49.692Z,0.00
2018-04-13T03:30:49.651Z,0.00
2018-04-13T03:31:49.629Z,0.00
2018-04-13T03:32:50.487Z,0.00
2018-04-13T03:33:49.599Z,0.00
2018-04-13T03:34:49.596Z,0.00
2018-04-13T03:35:49.567Z,0.00
2018-04-13T03:36:49.553Z,0.00
2018-04-13T03:37:49.529Z,0.00
2018-04-13T03:38:49.516Z,0.00
2018-04-13T03:39:49.531Z,0.00
2018-04-13T03:40:49.507Z,0.00
2018-04-13T03:41:49.469Z,0.00
2018-04-13T03:42:49.450Z,0.00
2018-04-13T03:43:49.432Z,0.00
2018-04-13T03:44:49.962Z,0.00
2018-04-13T03:45:49.409Z,0.00
2018-04-13T03:46:49.406Z,0.00
2018-04-13T03:47:49.381Z,0.00
2018-04-13T03:48:49.352Z,0.00
2018-04-13T03:49:49.333Z,0.00
2018-04-13T03:50:49.321Z,0.00
2018-04-13T03:51:49.319Z,0.00
2018-04-13T03:52:49.288Z,0.00
2018-04-13T03:53:49.264Z,0.00
2018-04-13T03:54:49.255Z,0.00
2018-04-13T03:55:49.233Z,0.00
2018-04-13T03:56:49.232Z,0.00
2018-04-13T03:57:49.218Z,0.00
2018-04-13T03:58:49.197Z,0.00
2018-04-13T03:59:49.167Z,0.00
2018-04-13T04:00:49.153Z,0.00
2018-04-13T04:01:49.136Z,0.00
2018-04-13T04:02:49.152Z,0.00
2018-04-13T04:03:49.104Z,0.00
2018-04-13T04:04:49.086Z,0.00
2018-04-13T04:05:49.072Z,0.00
2018-04-13T04:06:49.052Z,0.00
2018-04-13T04:07:49.032Z,0.00
2018-04-13T04:08:49.034Z,0.00
2018-04-13T04:09:49.022Z,0.00
2018-04-13T04:10:48.992Z,0.00
2018-04-13T04:11:48.972Z,0.00
2018-04-13T04:12:48.947Z,0.00
2018-04-13T04:13:48.933Z,0.00
2018-04-13T04:14:48.950Z,0.00
2018-04-13T04:15:48.899Z,0.00
2018-04-13T04:16:48.898Z,0.00
2018-04-13T04:17:48.871Z,0.00
2018-04-13T04:18:48.851Z,0.00
2018-04-13T04:19:48.853Z,4.00
2018-04-13T04:20:48.829Z,4.00
2018-04-13T04:21:48.809Z,0.00
2018-04-13T04:22:48.788Z,4.00
2018-04-13T04:23:48.765Z,4.00
2018-04-13T04:24:48.753Z,4.00
2018-04-13T04:25:48.749Z,4.00
2018-04-13T04:26:48.718Z,8.00
2018-04-13T04:27:48.701Z,8.00
2018-04-13T04:28:48.679Z,12.00
2018-04-13T04:29:48.670Z,12.00
2018-04-13T04:30:48.674Z,12.00
2018-04-13T04:31:48.636Z,12.00
2018-04-13T04:32:48.641Z,16.00
2018-04-13T04:33:48.597Z,16.00
2018-04-13T04:34:48.584Z,20.00
2018-04-13T04:35:48.568Z,20.00
2018-04-13T04:36:48.579Z,24.00
2018-04-13T04:37:48.549Z,28.00
2018-04-13T04:38:48.512Z,28.00
2018-04-13T04:39:48.496Z,36.00
2018-04-13T04:40:48.479Z,40.00
2018-04-13T04:41:48.501Z,40.00
2018-04-13T04:42:48.445Z,44.00
2018-04-13T04:43:48.436Z,48.00
2018-04-13T04:44:48.412Z,52.00
2018-04-13T04:45:48.397Z,56.00
2018-04-13T04:46:48.930Z,60.00
2018-04-13T04:47:48.385Z,68.00
2018-04-13T04:48:48.352Z,72.00
2018-04-13T04:49:48.338Z,76.00
2018-04-13T04:50:48.316Z,84.00
2018-04-13T04:51:48.299Z,88.00
2018-04-13T04:52:48.298Z,100.00
2018-04-13T04:53:48.269Z,104.00
2018-04-13T04:54:48.269Z,112.00
2018-04-13T04:55:48.231Z,116.00
2018-04-13T04:56:48.216Z,124.00
2018-04-13T04:57:48.196Z,136.00
2018-04-13T04:58:48.200Z,140.00
2018-04-13T04:59:48.169Z,148.00
2018-04-13T05:00:48.174Z,156.00
2018-04-13T05:01:48.136Z,164.00
2018-04-13T05:02:48.117Z,176.00
2018-04-13T05:03:48.116Z,184.00
2018-04-13T05:04:48.084Z,196.00
2018-04-13T05:05:48.072Z,208.00
2018-04-13T05:06:48.076Z,216.00
2018-04-13T05:07:48.046Z,232.00
2018-04-13T05:08:48.935Z,240.00
2018-04-13T05:09:48.014Z,252.00
2018-04-13T05:10:47.996Z,268.00
2018-04-13T05:11:48.023Z,284.00
2018-04-13T05:12:47.950Z,304.00
2018-04-13T05:13:47.944Z,328.00
2018-04-13T05:14:47.924Z,348.00
2018-04-13T05:15:47.929Z,356.00
2018-04-13T05:16:47.886Z,364.00
2018-04-13T05:17:47.903Z,384.00
2018-04-13T05:18:47.856Z,396.00
2018-04-13T05:19:47.838Z,392.00
2018-04-13T05:20:47.829Z,404.00
2018-04-13T05:21:47.851Z,428.00
2018-04-13T05:22:47.789Z,452.00
2018-04-13T05:23:47.791Z,480.00
2018-04-13T05:24:49.438Z,500.00
2018-04-13T05:25:47.747Z,528.00
2018-04-13T05:26:47.727Z,560.00
2018-04-13T05:27:47.713Z,584.00
2018-04-13T05:28:48.044Z,604.00
2018-04-13T05:29:47.681Z,612.00
2018-04-13T05:30:47.667Z,632.00
2018-04-13T05:31:47.688Z,644.00
2018-04-13T05:32:47.630Z,652.00
2018-04-13T05:33:47.633Z,660.00
2018-04-13T05:34:47.603Z,680.00
2018-04-13T05:35:47.588Z,704.00
2018-04-13T05:36:47.563Z,740.00
2018-04-13T05:37:48.442Z,776.00
2018-04-13T05:38:47.555Z,812.00
2018-04-13T05:39:47.521Z,840.00
2018-04-13T05:40:47.507Z,872.00
2018-04-13T05:41:47.498Z,888.00
2018-04-13T05:42:47.476Z,908.00
2018-04-13T05:43:47.486Z,948.00
2018-04-13T05:44:47.452Z,984.00
2018-04-13T05:45:47.424Z,1032.00
2018-04-13T05:46:47.412Z,1032.00
2018-04-13T05:47:47.395Z,1044.00
2018-04-13T05:48:47.386Z,1064.00
2018-04-13T05:49:47.378Z,1088.00
2018-04-13T05:50:47.346Z,1108.00
2018-04-13T05:51:47.352Z,1112.00
2018-04-13T05:52:47.319Z,1116.00
2018-04-13T05:53:47.299Z,1132.00
2018-04-13T05:54:47.278Z,1160.00
2018-04-13T05:55:47.281Z,1172.00
2018-04-13T05:56:47.252Z,1176.00
2018-04-13T05:57:47.245Z,1212.00
2018-04-13T05:58:47.224Z,1288.00
2018-04-13T05:59:47.214Z,1368.00
2018-04-13T06:00:47.203Z,1368.00
2018-04-13T06:01:51.445Z,1384.00
2018-04-13T06:02:47.155Z,1420.00
2018-04-13T06:03:47.151Z,1452.00
2018-04-13T06:04:47.122Z,1488.00
2018-04-13T06:05:47.111Z,1492.00
2018-04-13T06:06:47.112Z,1496.00
2018-04-13T06:07:47.074Z,1472.00
2018-04-13T06:08:47.057Z,1496.00
2018-04-13T06:09:47.045Z,1516.00
2018-04-13T06:10:47.032Z,1536.00
2018-04-13T06:11:47.030Z,1580.00
2018-04-13T06:12:46.999Z,1688.00
2018-04-13T06:13:46.993Z,1736.00
2018-04-13T06:14:46.972Z,1768.00
2018-04-13T06:15:46.951Z,1808.00
2018-04-13T06:16:46.939Z,1832.00
2018-04-13T06:17:46.936Z,1880.00
2018-04-13T06:18:46.957Z,1916.00
2018-04-13T06:19:46.900Z,1964.00
2018-04-13T06:20:46.876Z,2016.00
2018-04-13T06:21:46.854Z,2060.00
2018-04-13T06:22:46.860Z,2096.00
2018-04-13T06:23:46.827Z,2100.00
2018-04-13T06:24:47.518Z,2156.00
2018-04-13T06:25:46.796Z,2184.00
2018-04-13T06:26:46.777Z,2216.00
2018-04-13T06:27:46.767Z,2236.00
2018-04-13T06:28:46.760Z,2252.00
2018-04-13T06:29:46.738Z,2288.00
2018-04-13T06:30:46.730Z,2324.00
2018-04-13T06:31:46.696Z,2332.00
2018-04-13T06:32:46.698Z,2336.00
2018-04-13T06:33:46.693Z,2384.00
2018-04-13T06:34:46.663Z,2432.00
2018-04-13T06:35:48.453Z,2456.00
2018-04-13T06:36:46.625Z,2488.00
2018-04-13T06:37:46.632Z,2508.00
2018-04-13T06:38:46.600Z,2504.00
2018-04-13T06:39:46.596Z,2544.00
2018-04-13T06:40:46.561Z,2520.00
2018-04-13T06:41:46.561Z,2392.00
2018-04-13T06:42:46.535Z,2272.00
2018-04-13T06:43:46.527Z,2380.00
2018-04-13T06:44:46.522Z,2420.00
2018-04-13T06:45:46.484Z,2400.00
2018-04-13T06:46:46.493Z,2392.00
2018-04-13T06:47:46.457Z,2440.00
2018-04-13T06:48:46.489Z,2436.00
2018-04-13T06:49:46.427Z,2468.00
2018-04-13T06:50:46.429Z,2476.00
2018-04-13T06:51:46.415Z,2484.00
2018-04-13T06:52:46.383Z,2552.00
2018-04-13T06:53:46.370Z,2576.00
2018-04-13T06:54:46.364Z,2640.00
2018-04-13T06:55:46.342Z,2676.00
2018-04-13T06:56:46.381Z,2740.00
2018-04-13T06:57:46.311Z,2844.00
2018-04-13T06:58:46.310Z,2908.00
2018-04-13T06:59:46.274Z,2972.00
2018-04-13T07:00:46.283Z,3060.00
2018-04-13T07:01:46.251Z,3112.00
2018-04-13T07:02:46.230Z,3176.00
2018-04-13T07:03:46.224Z,3244.00
2018-04-13T07:04:46.204Z,3292.00
2018-04-13T07:05:46.203Z,3292.00
2018-04-13T07:06:46.177Z,3272.00
2018-04-13T07:07:46.180Z,3288.00
2018-04-13T07:08:46.153Z,3368.00
2018-04-13T07:09:46.166Z,3492.00
2018-04-13T07:10:46.119Z,3652.00
2018-04-13T07:11:46.106Z,3804.00
2018-04-13T07:12:46.103Z,3908.00
2018-04-13T07:13:46.076Z,3944.00
2018-04-13T07:14:46.073Z,3944.00
2018-04-13T07:15:46.041Z,3944.00
2018-04-13T07:16:46.047Z,3956.00
2018-04-13T07:17:46.014Z,3996.00
2018-04-13T07:18:46.011Z,4056.00
2018-04-13T07:19:45.996Z,4092.00
2018-04-13T07:20:45.969Z,4176.00
2018-04-13T07:21:45.960Z,4260.00
2018-04-13T07:22:45.945Z,4320.00
2018-04-13T07:23:45.947Z,4372.00
2018-04-13T07:24:45.914Z,4420.00
2018-04-13T07:25:45.918Z,4408.00
2018-04-13T07:26:45.971Z,4452.00
2018-04-13T07:27:45.869Z,4524.00
2018-04-13T07:28:45.855Z,4528.00
2018-04-13T07:29:45.858Z,4568.00
2018-04-13T07:30:45.828Z,4760.00
2018-04-13T07:31:45.831Z,5012.00
2018-04-13T07:32:45.801Z,5128.00
2018-04-13T07:33:45.783Z,5132.00
2018-04-13T07:34:47.462Z,5036.00
2018-04-13T07:35:45.759Z,5112.00
2018-04-13T07:36:45.745Z,5228.00
2018-04-13T07:37:45.753Z,5188.00
2018-04-13T07:38:46.463Z,5092.00
2018-04-13T07:39:45.701Z,4900.00
2018-04-13T07:40:46.536Z,4756.00
2018-04-13T07:41:45.676Z,4748.00
2018-04-13T07:42:45.675Z,4620.00
2018-04-13T07:43:45.665Z,4540.00
2018-04-13T07:44:45.634Z,4496.00
2018-04-13T07:45:45.620Z,4480.00
2018-04-13T07:46:45.601Z,4548.00
2018-04-13T07:47:45.589Z,4608.00
2018-04-13T07:48:45.592Z,4684.00
2018-04-13T07:49:45.585Z,4776.00
2018-04-13T07:50:45.544Z,5024.00
2018-04-13T07:51:45.531Z,5188.00
2018-04-13T07:52:45.520Z,5188.00
2018-04-13T07:53:45.525Z,5176.00
2018-04-13T07:54:45.490Z,5228.00
2018-04-13T07:55:45.477Z,5216.00
2018-04-13T07:56:45.474Z,5100.00
2018-04-13T07:57:45.707Z,5060.00
2018-04-13T07:58:45.435Z,5132.00
2018-04-13T07:59:45.554Z,5336.00
2018-04-13T08:00:46.468Z,5416.00
2018-04-13T08:01:45.601Z,5584.00
2018-04-13T08:02:45.376Z,5672.00
2018-04-13T08:03:45.364Z,5708.00
2018-04-13T08:04:45.367Z,5744.00
2018-04-13T08:05:45.335Z,5792.00
2018-04-13T08:06:45.323Z,5704.00
2018-04-13T08:07:46.008Z,5668.00
2018-04-13T08:08:45.295Z,5648.00
2018-04-13T08:09:45.279Z,5588.00
2018-04-13T08:10:45.280Z,5584.00
2018-04-13T08:11:45.249Z,5584.00
2018-04-13T08:12:45.243Z,5608.00
2018-04-13T08:13:45.227Z,5664.00
2018-04-13T08:14:45.211Z,5676.00
2018-04-13T08:15:45.215Z,5676.00
2018-04-13T08:16:45.233Z,5764.00
2018-04-13T08:17:45.167Z,5888.00
2018-04-13T08:18:45.158Z,6020.00
2018-04-13T08:19:45.147Z,6172.00
2018-04-13T08:20:45.156Z,6336.00
2018-04-13T08:21:46.010Z,6464.00
2018-04-13T08:22:45.122Z,6584.00
2018-04-13T08:23:45.087Z,6692.00
2018-04-13T08:24:45.071Z,6788.00
2018-04-13T08:25:45.074Z,6908.00
2018-04-13T08:26:45.046Z,6980.00
2018-04-13T08:27:45.033Z,6972.00
2018-04-13T08:28:45.032Z,6952.00
2018-04-13T08:29:45.021Z,6996.00
2018-04-13T08:30:45.003Z,7036.00
2018-04-13T08:31:44.975Z,7092.00
2018-04-13T08:32:44.980Z,7020.00
2018-04-13T08:33:44.952Z,6872.00
2018-04-13T08:34:44.930Z,6796.00
2018-04-13T08:35:44.951Z,6816.00
2018-04-13T08:36:44.908Z,6768.00
2018-04-13T08:37:44.896Z,6728.00
2018-04-13T08:38:44.906Z,6716.00
2018-04-13T08:39:44.866Z,6732.00
2018-04-13T08:40:44.858Z,6564.00
2018-04-13T08:41:44.859Z,6404.00
2018-04-13T08:42:44.825Z,6236.00
2018-04-13T08:43:44.812Z,6112.00
2018-04-13T08:44:44.805Z,5976.00
2018-04-13T08:45:44.818Z,5836.00
2018-04-13T08:46:44.774Z,5668.00
2018-04-13T08:47:44.780Z,5524.00
2018-04-13T08:48:45.007Z,5396.00
2018-04-13T08:49:44.738Z,5256.00
2018-04-13T08:50:44.719Z,5176.00
2018-04-13T08:51:44.708Z,5076.00
2018-04-13T08:52:44.707Z,4988.00
2018-04-13T08:53:44.673Z,4920.00
2018-04-13T08:54:44.714Z,4832.00
2018-04-13T08:55:44.650Z,4740.00
2018-04-13T08:56:44.639Z,4696.00
2018-04-13T08:57:44.671Z,4712.00
2018-04-13T08:58:44.615Z,4816.00
2018-04-13T08:59:47.028Z,4916.00
2018-04-13T09:00:44.663Z,5036.00
2018-04-13T09:01:44.573Z,5168.00
2018-04-13T09:02:45.655Z,5316.00
2018-04-13T09:03:44.559Z,5484.00
2018-04-13T09:04:44.584Z,5572.00
2018-04-13T09:05:45.482Z,5604.00
2018-04-13T09:06:44.502Z,5624.00
2018-04-13T09:07:44.509Z,5644.00
2018-04-13T09:08:44.497Z,5644.00
2018-04-13T09:09:44.499Z,5588.00
2018-04-13T09:10:44.496Z,5524.00
2018-04-13T09:11:44.446Z,5472.00
2018-04-13T09:12:44.428Z,5384.00
2018-04-13T09:13:44.427Z,5312.00
2018-04-13T09:14:45.028Z,5264.00
2018-04-13T09:15:44.389Z,5264.00
2018-04-13T09:16:44.372Z,5316.00
2018-04-13T09:17:44.360Z,5412.00
2018-04-13T09:18:44.357Z,5556.00
2018-04-13T09:19:44.356Z,5644.00
2018-04-13T09:20:44.417Z,5780.00
2018-04-13T09:21:44.310Z,5940.00
2018-04-13T09:22:44.291Z,6076.00
2018-04-13T09:23:44.302Z,6148.00
2018-04-13T09:24:45.024Z,6332.00
2018-04-13T09:25:44.256Z,6504.00
2018-04-13T09:26:44.264Z,6608.00
2018-04-13T09:27:44.231Z,6612.00
2018-04-13T09:28:44.262Z,6616.00
2018-04-13T09:29:44.204Z,6664.00
2018-04-13T09:30:44.203Z,6724.00
2018-04-13T09:31:45.988Z,7248.00
2018-04-13T09:32:44.177Z,9176.00
2018-04-13T09:33:44.152Z,10284.00
2018-04-13T09:34:44.141Z,10536.00
2018-04-13T09:35:44.175Z,10876.00
2018-04-13T09:36:45.027Z,11084.00
2018-04-13T09:37:44.119Z,12176.00
2018-04-13T09:38:44.088Z,14540.00
2018-04-13T09:39:44.083Z,15712.00
2018-04-13T09:40:44.068Z,19136.00
2018-04-13T09:41:44.069Z,19520.00
2018-04-13T09:42:44.037Z,17568.00
2018-04-13T09:43:44.047Z,17984.00
2018-04-13T09:44:44.014Z,16320.00
2018-04-13T09:45:44.005Z,11560.00
2018-04-13T09:46:44.011Z,10468.00
2018-04-13T09:47:43.996Z,9096.00
2018-04-13T09:48:43.991Z,8696.00
2018-04-13T09:49:43.962Z,8228.00
2018-04-13T09:50:43.985Z,7800.00
2018-04-13T09:51:43.941Z,7516.00
2018-04-13T09:52:43.921Z,7964.00
2018-04-13T09:53:44.496Z,8036.00
2018-04-13T09:54:43.914Z,8980.00
2018-04-13T09:55:43.894Z,10548.00
2018-04-13T09:56:43.874Z,8676.00
2018-04-13T09:57:43.870Z,7920.00
2018-04-13T09:58:43.862Z,7224.00
2018-04-13T09:59:43.854Z,6768.00
2018-04-13T10:00:43.849Z,6564.00
2018-04-13T10:01:43.823Z,6988.00
2018-04-13T10:02:43.806Z,7088.00
2018-04-13T10:03:43.807Z,7652.00
2018-04-13T10:04:43.791Z,8416.00
2018-04-13T10:05:43.804Z,9976.00
2018-04-13T10:06:43.771Z,9720.00
2018-04-13T10:07:43.757Z,10768.00
2018-04-13T10:08:43.745Z,8848.00
2018-04-13T10:09:43.736Z,7656.00
2018-04-13T10:10:43.738Z,6912.00
2018-04-13T10:11:43.713Z,6404.00
2018-04-13T10:12:43.703Z,5960.00
2018-04-13T10:13:43.689Z,5732.00
2018-04-13T10:14:43.673Z,5632.00
2018-04-13T10:15:43.703Z,5564.00
2018-04-13T10:16:43.655Z,5472.00
2018-04-13T10:17:43.647Z,5344.00
2018-04-13T10:18:43.637Z,5220.00
2018-04-13T10:19:43.631Z,5096.00
2018-04-13T10:20:43.609Z,4952.00
2018-04-13T10:21:43.622Z,4820.00
2018-04-13T10:22:43.586Z,4716.00
2018-04-13T10:23:45.502Z,4600.00
2018-04-13T10:24:43.567Z,4476.00
2018-04-13T10:25:43.555Z,4352.00
2018-04-13T10:26:43.542Z,4240.00
2018-04-13T10:27:43.551Z,4136.00
2018-04-13T10:28:43.529Z,4052.00
2018-04-13T10:29:43.509Z,3988.00
2018-04-13T10:30:43.502Z,3952.00
2018-04-13T10:31:43.500Z,3924.00
2018-04-13T10:32:43.479Z,3920.00
2018-04-13T10:33:43.476Z,3932.00
2018-04-13T10:34:43.455Z,3948.00
2018-04-13T10:35:43.446Z,3968.00
2018-04-13T10:36:43.429Z,3996.00
2018-04-13T10:37:43.423Z,4048.00
2018-04-13T10:38:43.429Z,4124.00
2018-04-13T10:39:43.413Z,4240.00
2018-04-13T10:40:43.380Z,4388.00
2018-04-13T10:41:43.369Z,4536.00
2018-04-13T10:42:43.371Z,4684.00
2018-04-13T10:43:45.007Z,4832.00
2018-04-13T10:44:43.358Z,4980.00
2018-04-13T10:45:43.350Z,5100.00
2018-04-13T10:46:43.316Z,5248.00
2018-04-13T10:47:44.046Z,5416.00
2018-04-13T10:48:43.289Z,5608.00
2018-04-13T10:49:43.291Z,5824.00
2018-04-13T10:50:43.266Z,6016.00
2018-04-13T10:51:43.276Z,6000.00
2018-04-13T10:52:43.241Z,5872.00
2018-04-13T10:53:43.234Z,5792.00
2018-04-13T10:54:43.226Z,5728.00
2018-04-13T10:55:43.214Z,5632.00
2018-04-13T10:56:43.199Z,5504.00
2018-04-13T10:57:43.199Z,5392.00
2018-04-13T10:58:43.192Z,5240.00
2018-04-13T10:59:44.063Z,5064.00
2018-04-13T11:00:43.165Z,4884.00
2018-04-13T11:01:43.135Z,4728.00
2018-04-13T11:02:43.125Z,4592.00
2018-04-13T11:03:43.183Z,4460.00
2018-04-13T11:04:43.099Z,4324.00
2018-04-13T11:05:43.090Z,4200.00
2018-04-13T11:06:43.075Z,4088.00
2018-04-13T11:07:43.078Z,4004.00
2018-04-13T11:08:43.068Z,3952.00
2018-04-13T11:09:43.043Z,3932.00
2018-04-13T11:10:43.049Z,3928.00
2018-04-13T11:11:43.014Z,3940.00
2018-04-13T11:12:43.007Z,3952.00
2018-04-13T11:13:42.991Z,3964.00
2018-04-13T11:14:42.999Z,4004.00
2018-04-13T11:15:42.967Z,4072.00
2018-04-13T11:16:42.954Z,4172.00
2018-04-13T11:17:42.965Z,4328.00
2018-04-13T11:18:42.938Z,4540.00
2018-04-13T11:19:42.930Z,4796.00
2018-04-13T11:20:42.906Z,5132.00
2018-04-13T11:21:42.900Z,5528.00
2018-04-13T11:22:42.907Z,5968.00
2018-04-13T11:23:42.875Z,6480.00
2018-04-13T11:24:42.862Z,6916.00
2018-04-13T11:25:42.845Z,6956.00
2018-04-13T11:26:43.552Z,6824.00
2018-04-13T11:27:42.820Z,6592.00
2018-04-13T11:28:43.553Z,6420.00
2018-04-13T11:29:42.799Z,6356.00
2018-04-13T11:30:42.788Z,6416.00
2018-04-13T11:31:42.814Z,6556.00
2018-04-13T11:32:44.518Z,6728.00
2018-04-13T11:33:42.770Z,6908.00
2018-04-13T11:34:42.749Z,6816.00
2018-04-13T11:35:42.743Z,7280.00
2018-04-13T11:36:42.720Z,6100.00
2018-04-13T11:37:42.702Z,5508.00
2018-04-13T11:38:42.705Z,5212.00
2018-04-13T11:39:43.554Z,4984.00
2018-04-13T11:40:42.681Z,4812.00
2018-04-13T11:41:42.698Z,4664.00
2018-04-13T11:42:42.649Z,4544.00
2018-04-13T11:43:42.631Z,4416.00
2018-04-13T11:44:42.620Z,4288.00
2018-04-13T11:45:42.641Z,4164.00
2018-04-13T11:46:42.629Z,4076.00
2018-04-13T11:47:42.587Z,4032.00
2018-04-13T11:48:42.569Z,4032.00
2018-04-13T11:49:42.558Z,4072.00
2018-04-13T11:50:42.557Z,4116.00
2018-04-13T11:51:42.553Z,4188.00
2018-04-13T11:52:42.523Z,4272.00
2018-04-13T11:53:42.508Z,4384.00
2018-04-13T11:54:42.525Z,4508.00
2018-04-13T11:55:42.499Z,4656.00
2018-04-13T11:56:42.504Z,4784.00
2018-04-13T11:57:42.497Z,5008.00
2018-04-13T11:58:42.448Z,5300.00
2018-04-13T11:59:42.439Z,5704.00
2018-04-13T12:00:42.433Z,6232.00
2018-04-13T12:01:42.417Z,6756.00
2018-04-13T12:02:42.402Z,6604.00
2018-04-13T12:03:42.435Z,6868.00
2018-04-13T12:04:42.384Z,7000.00
2018-04-13T12:05:42.451Z,7180.00
2018-04-13T12:06:42.353Z,7832.00
2018-04-13T12:07:42.434Z,8420.00
2018-04-13T12:08:42.347Z,8340.00
2018-04-13T12:09:42.349Z,8480.00
2018-04-13T12:10:42.306Z,9188.00
2018-04-13T12:11:42.297Z,9620.00
2018-04-13T12:12:42.286Z,9756.00
2018-04-13T12:13:42.275Z,10868.00
2018-04-13T12:14:42.276Z,11540.00
2018-04-13T12:15:42.297Z,13188.00
2018-04-13T12:16:42.234Z,21216.00
2018-04-13T12:17:42.226Z,15296.00
2018-04-13T12:18:42.213Z,13748.00
2018-04-13T12:19:42.219Z,14812.00
2018-04-13T12:20:42.206Z,17280.00
2018-04-13T12:21:42.178Z,21024.00
2018-04-13T12:22:42.186Z,15840.00
2018-04-13T12:23:42.175Z,17280.00
2018-04-13T12:24:42.143Z,13660.00
2018-04-13T12:25:42.134Z,16064.00
2018-04-13T12:26:42.141Z,8580.00
2018-04-13T12:27:42.129Z,7940.00
2018-04-13T12:28:42.104Z,7924.00
2018-04-13T12:29:42.108Z,8292.00
2018-04-13T12:30:42.088Z,8956.00
2018-04-13T12:31:42.076Z,9476.00
2018-04-13T12:32:42.072Z,10600.00